sensor_id;sensor_type;location;lat;lon;timestamp;pressure;altitude;pressure_sealevel;temperature;humidity
57248;BME280;55809;46.618;10.764;2023-07-20T00:00:06;92760.84;;;17.47;91.89
57248;BME280;55809;46.618;10.764;2023-07-20T00:02:37;92781.84;;;17.59;90.83
57248;BME280;55809;46.618;10.764;2023-07-20T00:05:06;92764.03;;;17.45;90.89
57248;BME280;55809;46.618;10.764;2023-07-20T00:13:11;92761.25;;;17.14;92.80
57248;BME280;55809;46.618;10.764;2023-07-20T00:15:46;92772.84;;;17.27;92.38
57248;BME280;55809;46.618;10.764;2023-07-20T00:18:18;92768.41;;;17.21;92.21
57248;BME280;55809;46.618;10.764;2023-07-20T00:20:46;92758.41;;;17.18;91.67
57248;BME280;55809;46.618;10.764;2023-07-20T00:26:06;92773.13;;;17.20;92.31
57248;BME280;55809;46.618;10.764;2023-07-20T00:28:33;92774.06;;;17.26;92.28
57248;BME280;55809;46.618;10.764;2023-07-20T00:31:05;92784.28;;;17.35;92.48
57248;BME280;55809;46.618;10.764;2023-07-20T00:33:34;92762.41;;;17.26;91.77
57248;BME280;55809;46.618;10.764;2023-07-20T00:36:10;92776.25;;;17.31;91.60
57248;BME280;55809;46.618;10.764;2023-07-20T00:38:38;92768.81;;;17.32;91.63
57248;BME280;55809;46.618;10.764;2023-07-20T00:41:06;92774.13;;;17.35;90.81
57248;BME280;55809;46.618;10.764;2023-07-20T00:43:34;92784.22;;;17.48;89.93
57248;BME280;55809;46.618;10.764;2023-07-20T00:49:27;92782.72;;;17.25;91.47
57248;BME280;55809;46.618;10.764;2023-07-20T00:52:18;92784.97;;;17.26;91.49
57248;BME280;55809;46.618;10.764;2023-07-20T00:54:52;92775.22;;;17.16;91.74
57248;BME280;55809;46.618;10.764;2023-07-20T00:57:25;92801.97;;;17.30;90.59
57248;BME280;55809;46.618;10.764;2023-07-20T00:59:54;92801.41;;;17.35;89.95
57248;BME280;55809;46.618;10.764;2023-07-20T01:02:23;92768.13;;;17.19;89.14
57248;BME280;55809;46.618;10.764;2023-07-20T01:04:54;92803.25;;;17.39;88.82
57248;BME280;55809;46.618;10.764;2023-07-20T01:07:25;92790.44;;;17.26;90.00
57248;BME280;55809;46.618;10.764;2023-07-20T01:10:00;92799.13;;;17.34;88.42
57248;BME280;55809;46.618;10.764;2023-07-20T01:12:33;92811.88;;;17.37;88.50
57248;BME280;55809;46.618;10.764;2023-07-20T01:15:01;92796.91;;;17.20;88.04
57248;BME280;55809;46.618;10.764;2023-07-20T01:17:30;92806.94;;;17.23;88.89
57248;BME280;55809;46.618;10.764;2023-07-20T01:20:13;92788.59;;;17.01;89.96
57248;BME280;55809;46.618;10.764;2023-07-20T01:23:00;92799.13;;;17.12;89.96
57248;BME280;55809;46.618;10.764;2023-07-20T01:25:58;92807.81;;;17.20;89.28
57248;BME280;55809;46.618;10.764;2023-07-20T01:32:18;92799.34;;;17.18;88.17
57248;BME280;55809;46.618;10.764;2023-07-20T01:34:48;92800.50;;;17.17;87.74
57248;BME280;55809;46.618;10.764;2023-07-20T01:37:18;92777.56;;;17.05;87.82
57248;BME280;55809;46.618;10.764;2023-07-20T01:40:06;92794.19;;;17.20;87.29
57248;BME280;55809;46.618;10.764;2023-07-20T01:42:57;92783.66;;;17.09;87.18
57248;BME280;55809;46.618;10.764;2023-07-20T01:45:28;92785.28;;;17.06;87.47
57248;BME280;55809;46.618;10.764;2023-07-20T01:47:59;92791.25;;;17.14;87.55
57248;BME280;55809;46.618;10.764;2023-07-20T01:50:28;92771.03;;;17.02;88.08
57248;BME280;55809;46.618;10.764;2023-07-20T01:52:59;92790.94;;;17.12;87.65
57248;BME280;55809;46.618;10.764;2023-07-20T01:55:38;92775.06;;;16.98;87.63
57248;BME280;55809;46.618;10.764;2023-07-20T01:58:10;92763.03;;;16.86;88.19
57248;BME280;55809;46.618;10.764;2023-07-20T02:00:42;92772.91;;;16.93;87.41
57248;BME280;55809;46.618;10.764;2023-07-20T02:03:31;92792.38;;;17.04;88.06
57248;BME280;55809;46.618;10.764;2023-07-20T02:06:06;92768.25;;;16.80;88.58
57248;BME280;55809;46.618;10.764;2023-07-20T02:08:34;92778.63;;;16.85;88.61
57248;BME280;55809;46.618;10.764;2023-07-20T02:11:04;92792.88;;;16.90;88.24
57248;BME280;55809;46.618;10.764;2023-07-20T02:13:35;92790.50;;;16.92;87.91
57248;BME280;55809;46.618;10.764;2023-07-20T02:16:07;92770.34;;;16.76;87.20
57248;BME280;55809;46.618;10.764;2023-07-20T02:18:40;92791.03;;;16.86;87.82
57248;BME280;55809;46.618;10.764;2023-07-20T02:21:08;92777.13;;;16.72;88.18
57248;BME280;55809;46.618;10.764;2023-07-20T02:28:55;92783.47;;;16.56;88.73
57248;BME280;55809;46.618;10.764;2023-07-20T02:45:40;92778.59;;;16.25;88.76
57248;BME280;55809;46.618;10.764;2023-07-20T02:53:41;92790.69;;;16.37;87.77
57248;BME280;55809;46.618;10.764;2023-07-20T03:02:13;92789.16;;;16.49;87.15
57248;BME280;55809;46.618;10.764;2023-07-20T03:04:57;92767.50;;;16.32;85.97
57248;BME280;55809;46.618;10.764;2023-07-20T03:07:39;92804.31;;;16.50;86.73
57248;BME280;55809;46.618;10.764;2023-07-20T03:10:10;92790.81;;;16.33;87.18
57248;BME280;55809;46.618;10.764;2023-07-20T03:16:01;92804.84;;;16.45;86.51
57248;BME280;55809;46.618;10.764;2023-07-20T05:01:41;92793.16;;;16.57;88.86
57248;BME280;55809;46.618;10.764;2023-07-20T05:04:14;92809.03;;;16.84;87.62
57248;BME280;55809;46.618;10.764;2023-07-20T05:06:41;92801.41;;;16.92;86.60
57248;BME280;55809;46.618;10.764;2023-07-20T05:09:10;92811.25;;;17.11;86.18
57248;BME280;55809;46.618;10.764;2023-07-20T05:11:39;92791.50;;;17.07;85.75
57248;BME280;55809;46.618;10.764;2023-07-20T05:14:07;92785.50;;;17.12;85.00
57248;BME280;55809;46.618;10.764;2023-07-20T05:16:38;92801.03;;;17.24;84.07
57248;BME280;55809;46.618;10.764;2023-07-20T05:19:05;92794.25;;;17.29;84.03
57248;BME280;55809;46.618;10.764;2023-07-20T05:21:36;92782.56;;;17.28;84.03
57248;BME280;55809;46.618;10.764;2023-07-20T05:24:04;92798.91;;;17.50;84.63
57248;BME280;55809;46.618;10.764;2023-07-20T05:26:33;92772.09;;;17.49;85.26
57248;BME280;55809;46.618;10.764;2023-07-20T05:29:00;92801.72;;;17.81;85.54
57248;BME280;55809;46.618;10.764;2023-07-20T05:31:27;92806.34;;;17.94;85.82
57248;BME280;55809;46.618;10.764;2023-07-20T05:33:58;92781.44;;;17.92;85.55
57248;BME280;55809;46.618;10.764;2023-07-20T05:36:25;92785.91;;;18.08;84.07
57248;BME280;55809;46.618;10.764;2023-07-20T05:38:54;92798.56;;;18.33;83.08
57248;BME280;55809;46.618;10.764;2023-07-20T05:41:25;92798.78;;;18.47;81.35
57248;BME280;55809;46.618;10.764;2023-07-20T05:43:54;92799.59;;;18.66;81.31
57248;BME280;55809;46.618;10.764;2023-07-20T05:46:25;92792.66;;;18.84;79.44
57248;BME280;55809;46.618;10.764;2023-07-20T05:48:54;92782.66;;;18.99;80.60
57248;BME280;55809;46.618;10.764;2023-07-20T05:51:24;92800.13;;;19.38;79.01
57248;BME280;55809;46.618;10.764;2023-07-20T05:53:51;92768.47;;;19.37;79.08
57248;BME280;55809;46.618;10.764;2023-07-20T05:56:20;92771.50;;;19.58;78.80
57248;BME280;55809;46.618;10.764;2023-07-20T05:58:48;92773.47;;;19.76;78.95
57248;BME280;55809;46.618;10.764;2023-07-20T06:01:15;92792.50;;;20.12;76.46
57248;BME280;55809;46.618;10.764;2023-07-20T06:03:45;92793.78;;;20.35;74.65
57248;BME280;55809;46.618;10.764;2023-07-20T06:06:12;92790.81;;;20.57;74.28
57248;BME280;55809;46.618;10.764;2023-07-20T06:08:43;92790.59;;;20.94;74.66
57248;BME280;55809;46.618;10.764;2023-07-20T06:11:10;92794.72;;;21.14;72.49
57248;BME280;55809;46.618;10.764;2023-07-20T06:13:39;92766.03;;;21.15;70.64
57248;BME280;55809;46.618;10.764;2023-07-20T06:16:09;92767.16;;;21.47;70.17
57248;BME280;55809;46.618;10.764;2023-07-20T06:18:38;92738.19;;;21.61;67.87
57248;BME280;55809;46.618;10.764;2023-07-20T06:21:06;92764.91;;;22.05;67.42
57248;BME280;55809;46.618;10.764;2023-07-20T06:23:37;92762.03;;;22.29;67.09
57248;BME280;55809;46.618;10.764;2023-07-20T06:26:07;92750.53;;;22.30;66.05
57248;BME280;55809;46.618;10.764;2023-07-20T06:28:37;92780.88;;;22.71;63.67
57248;BME280;55809;46.618;10.764;2023-07-20T06:31:04;92789.16;;;22.91;62.77
57248;BME280;55809;46.618;10.764;2023-07-20T06:33:33;92777.81;;;23.25;61.07
57248;BME280;55809;46.618;10.764;2023-07-20T06:36:01;92777.03;;;23.45;60.50
57248;BME280;55809;46.618;10.764;2023-07-20T06:38:28;92770.56;;;23.48;58.45
57248;BME280;55809;46.618;10.764;2023-07-20T06:40:58;92745.69;;;23.42;59.58
57248;BME280;55809;46.618;10.764;2023-07-20T06:43:26;92775.75;;;23.92;56.95
57248;BME280;55809;46.618;10.764;2023-07-20T06:45:54;92746.63;;;23.85;56.92
57248;BME280;55809;46.618;10.764;2023-07-20T06:48:22;92773.88;;;24.04;58.05
57248;BME280;55809;46.618;10.764;2023-07-20T06:50:49;92771.56;;;24.28;58.49
57248;BME280;55809;46.618;10.764;2023-07-20T06:53:17;92745.56;;;24.41;56.87
57248;BME280;55809;46.618;10.764;2023-07-20T06:55:46;92748.47;;;24.63;56.85
57248;BME280;55809;46.618;10.764;2023-07-20T06:58:13;92724.41;;;24.69;55.15
57248;BME280;55809;46.618;10.764;2023-07-20T07:00:42;92769.03;;;25.05;55.61
57248;BME280;55809;46.618;10.764;2023-07-20T07:03:10;92775.13;;;25.20;57.40
57248;BME280;55809;46.618;10.764;2023-07-20T07:05:37;92769.69;;;25.37;56.93
57248;BME280;55809;46.618;10.764;2023-07-20T07:08:05;92744.53;;;25.30;56.01
57248;BME280;55809;46.618;10.764;2023-07-20T07:10:34;92756.38;;;25.53;56.41
57248;BME280;55809;46.618;10.764;2023-07-20T07:13:01;92762.44;;;25.62;55.53
57248;BME280;55809;46.618;10.764;2023-07-20T07:15:28;92773.28;;;25.71;55.41
57248;BME280;55809;46.618;10.764;2023-07-20T07:17:57;92756.19;;;25.67;55.28
57248;BME280;55809;46.618;10.764;2023-07-20T07:20:25;92769.56;;;26.03;55.17
57248;BME280;55809;46.618;10.764;2023-07-20T07:22:55;92766.06;;;26.13;56.02
57248;BME280;55809;46.618;10.764;2023-07-20T07:25:22;92764.78;;;26.37;55.12
57248;BME280;55809;46.618;10.764;2023-07-20T07:27:52;92767.06;;;26.44;52.64
57248;BME280;55809;46.618;10.764;2023-07-20T07:30:22;92757.25;;;26.32;53.31
57248;BME280;55809;46.618;10.764;2023-07-20T07:32:49;92768.81;;;26.58;54.15
57248;BME280;55809;46.618;10.764;2023-07-20T07:35:19;92763.72;;;26.85;52.96
57248;BME280;55809;46.618;10.764;2023-07-20T07:37:46;92759.63;;;27.20;52.49
57248;BME280;55809;46.618;10.764;2023-07-20T07:40:17;92716.06;;;27.15;50.91
57248;BME280;55809;46.618;10.764;2023-07-20T07:42:45;92759.28;;;27.40;50.90
57248;BME280;55809;46.618;10.764;2023-07-20T07:45:16;92755.13;;;27.64;51.45
57248;BME280;55809;46.618;10.764;2023-07-20T07:47:44;92754.59;;;27.71;50.98
57248;BME280;55809;46.618;10.764;2023-07-20T07:50:11;92739.47;;;27.66;50.30
57248;BME280;55809;46.618;10.764;2023-07-20T07:52:41;92747.50;;;27.81;48.46
57248;BME280;55809;46.618;10.764;2023-07-20T07:55:09;92741.25;;;27.64;47.90
57248;BME280;55809;46.618;10.764;2023-07-20T07:57:37;92747.38;;;27.51;49.03
57248;BME280;55809;46.618;10.764;2023-07-20T08:00:07;92730.84;;;27.81;49.35
57248;BME280;55809;46.618;10.764;2023-07-20T08:02:41;92737.81;;;27.46;47.11
57248;BME280;55809;46.618;10.764;2023-07-20T08:05:09;92738.56;;;27.52;48.06
57248;BME280;55809;46.618;10.764;2023-07-20T08:07:36;92729.84;;;27.78;48.79
57248;BME280;55809;46.618;10.764;2023-07-20T08:10:07;92726.81;;;27.82;47.92
57248;BME280;55809;46.618;10.764;2023-07-20T08:12:34;92731.97;;;27.55;48.69
57248;BME280;55809;46.618;10.764;2023-07-20T08:15:04;92729.84;;;27.73;47.62
57248;BME280;55809;46.618;10.764;2023-07-20T08:17:31;92719.31;;;27.66;46.25
57248;BME280;55809;46.618;10.764;2023-07-20T08:19:58;92714.78;;;27.63;46.59
57248;BME280;55809;46.618;10.764;2023-07-20T08:22:39;92713.59;;;27.52;45.84
57248;BME280;55809;46.618;10.764;2023-07-20T08:25:08;92714.06;;;27.56;46.75
57248;BME280;55809;46.618;10.764;2023-07-20T08:27:37;92709.44;;;27.70;44.86
57248;BME280;55809;46.618;10.764;2023-07-20T08:30:07;92709.63;;;27.83;44.44
57248;BME280;55809;46.618;10.764;2023-07-20T08:32:36;92693.44;;;27.52;46.97
57248;BME280;55809;46.618;10.764;2023-07-20T08:35:06;92680.19;;;27.75;44.47
57248;BME280;55809;46.618;10.764;2023-07-20T08:37:33;92698.06;;;27.74;44.89
57248;BME280;55809;46.618;10.764;2023-07-20T08:40:00;92698.75;;;27.91;46.43
57248;BME280;55809;46.618;10.764;2023-07-20T08:42:36;92695.78;;;28.14;45.20
57248;BME280;55809;46.618;10.764;2023-07-20T08:45:04;92687.66;;;27.91;44.63
57248;BME280;55809;46.618;10.764;2023-07-20T08:47:33;92686.06;;;28.01;45.78
57248;BME280;55809;46.618;10.764;2023-07-20T08:50:00;92687.94;;;28.18;45.57
57248;BME280;55809;46.618;10.764;2023-07-20T08:52:33;92670.53;;;27.87;44.94
57248;BME280;55809;46.618;10.764;2023-07-20T08:55:01;92673.25;;;27.93;46.97
57248;BME280;55809;46.618;10.764;2023-07-20T08:57:32;92672.78;;;27.89;46.66
57248;BME280;55809;46.618;10.764;2023-07-20T09:00:02;92666.22;;;27.92;45.95
57248;BME280;55809;46.618;10.764;2023-07-20T09:02:39;92665.94;;;28.20;47.05
57248;BME280;55809;46.618;10.764;2023-07-20T09:05:09;92658.72;;;28.41;46.33
57248;BME280;55809;46.618;10.764;2023-07-20T09:07:38;92659.88;;;28.76;47.03
57248;BME280;55809;46.618;10.764;2023-07-20T09:10:08;92657.50;;;28.61;47.02
57248;BME280;55809;46.618;10.764;2023-07-20T09:12:35;92653.63;;;28.70;48.90
57248;BME280;55809;46.618;10.764;2023-07-20T09:15:06;92652.09;;;28.69;47.67
57248;BME280;55809;46.618;10.764;2023-07-20T09:17:38;92621.44;;;28.56;48.58
57248;BME280;55809;46.618;10.764;2023-07-20T09:20:08;92646.97;;;28.97;47.55
57248;BME280;55809;46.618;10.764;2023-07-20T09:22:37;92619.03;;;28.90;46.71
57248;BME280;55809;46.618;10.764;2023-07-20T09:25:09;92636.94;;;29.13;46.05
57248;BME280;55809;46.618;10.764;2023-07-20T09:27:39;92627.69;;;29.05;46.46
57248;BME280;55809;46.618;10.764;2023-07-20T09:30:18;92619.34;;;28.62;48.20
57248;BME280;55809;46.618;10.764;2023-07-20T09:32:47;92600.59;;;28.68;46.76
57248;BME280;55809;46.618;10.764;2023-07-20T09:35:18;92619.88;;;29.04;47.43
57248;BME280;55809;46.618;10.764;2023-07-20T09:37:46;92599.84;;;28.67;47.46
57248;BME280;55809;46.618;10.764;2023-07-20T09:40:18;92607.66;;;28.69;47.01
57248;BME280;55809;46.618;10.764;2023-07-20T09:42:46;92612.78;;;28.84;48.27
57248;BME280;55809;46.618;10.764;2023-07-20T09:45:19;92586.66;;;28.73;48.13
57248;BME280;55809;46.618;10.764;2023-07-20T09:47:46;92612.25;;;28.85;47.34
57248;BME280;55809;46.618;10.764;2023-07-20T09:50:14;92613.28;;;29.07;47.60
57248;BME280;55809;46.618;10.764;2023-07-20T09:52:43;92612.88;;;28.97;46.50
57248;BME280;55809;46.618;10.764;2023-07-20T09:55:13;92615.44;;;29.14;46.75
57248;BME280;55809;46.618;10.764;2023-07-20T09:57:42;92608.53;;;29.02;48.54
57248;BME280;55809;46.618;10.764;2023-07-20T10:00:11;92606.75;;;29.04;48.20
57248;BME280;55809;46.618;10.764;2023-07-20T10:02:44;92599.13;;;28.67;48.79
57248;BME280;55809;46.618;10.764;2023-07-20T10:05:13;92603.22;;;28.60;48.81
57248;BME280;55809;46.618;10.764;2023-07-20T10:07:44;92594.25;;;28.73;49.66
57248;BME280;55809;46.618;10.764;2023-07-20T10:10:17;92590.91;;;28.56;48.74
57248;BME280;55809;46.618;10.764;2023-07-20T10:12:57;92590.25;;;28.68;47.55
57248;BME280;55809;46.618;10.764;2023-07-20T10:15:30;92587.94;;;28.91;45.97
57248;BME280;55809;46.618;10.764;2023-07-20T10:18:12;92586.22;;;29.26;46.19
57248;BME280;55809;46.618;10.764;2023-07-20T10:20:41;92585.47;;;29.26;45.43
57248;BME280;55809;46.618;10.764;2023-07-20T10:23:10;92588.22;;;29.44;43.72
57248;BME280;55809;46.618;10.764;2023-07-20T10:25:40;92587.31;;;29.55;47.41
57248;BME280;55809;46.618;10.764;2023-07-20T10:28:10;92577.63;;;29.43;44.06
57248;BME280;55809;46.618;10.764;2023-07-20T10:30:39;92582.78;;;29.20;48.94
57248;BME280;55809;46.618;10.764;2023-07-20T10:33:13;92568.66;;;28.99;46.25
57248;BME280;55809;46.618;10.764;2023-07-20T10:35:56;92569.38;;;28.81;46.92
57248;BME280;55809;46.618;10.764;2023-07-20T10:38:39;92570.03;;;28.49;45.50
57248;BME280;55809;46.618;10.764;2023-07-20T10:41:18;92564.13;;;28.77;46.39
57248;BME280;55809;46.618;10.764;2023-07-20T10:43:47;92561.72;;;28.68;47.53
57248;BME280;55809;46.618;10.764;2023-07-20T10:46:34;92561.03;;;28.18;47.40
57248;BME280;55809;46.618;10.764;2023-07-20T10:49:04;92556.75;;;28.17;47.96
57248;BME280;55809;46.618;10.764;2023-07-20T10:51:39;92552.34;;;27.78;48.21
57248;BME280;55809;46.618;10.764;2023-07-20T10:54:08;92556.16;;;27.70;52.66
57248;BME280;55809;46.618;10.764;2023-07-20T10:56:36;92543.97;;;27.84;50.03
57248;BME280;55809;46.618;10.764;2023-07-20T10:59:17;92543.84;;;27.95;47.04
57248;BME280;55809;46.618;10.764;2023-07-20T11:01:46;92533.56;;;27.90;48.44
57248;BME280;55809;46.618;10.764;2023-07-20T11:04:17;92538.16;;;27.88;46.28
57248;BME280;55809;46.618;10.764;2023-07-20T11:06:45;92499.66;;;27.73;47.20
57248;BME280;55809;46.618;10.764;2023-07-20T11:09:14;92528.91;;;28.23;44.32
57248;BME280;55809;46.618;10.764;2023-07-20T11:11:42;92532.31;;;28.35;46.42
57248;BME280;55809;46.618;10.764;2023-07-20T11:14:20;92537.78;;;28.21;44.88
57248;BME280;55809;46.618;10.764;2023-07-20T11:16:49;92531.19;;;28.24;45.45
57248;BME280;55809;46.618;10.764;2023-07-20T11:19:20;92532.19;;;27.78;46.19
57248;BME280;55809;46.618;10.764;2023-07-20T11:21:50;92525.34;;;27.79;51.17
57248;BME280;55809;46.618;10.764;2023-07-20T11:24:19;92526.97;;;27.93;47.34
57248;BME280;55809;46.618;10.764;2023-07-20T11:26:48;92511.66;;;27.87;46.43
57248;BME280;55809;46.618;10.764;2023-07-20T11:29:17;92512.03;;;27.72;45.15
57248;BME280;55809;46.618;10.764;2023-07-20T11:31:45;92511.69;;;27.56;46.52
57248;BME280;55809;46.618;10.764;2023-07-20T11:34:13;92492.81;;;27.55;47.90
57248;BME280;55809;46.618;10.764;2023-07-20T11:36:46;92504.59;;;27.31;46.98
57248;BME280;55809;46.618;10.764;2023-07-20T11:39:16;92498.50;;;27.38;47.01
57248;BME280;55809;46.618;10.764;2023-07-20T11:41:46;92499.34;;;27.57;48.40
57248;BME280;55809;46.618;10.764;2023-07-20T11:44:15;92489.63;;;27.45;45.15
57248;BME280;55809;46.618;10.764;2023-07-20T11:46:42;92481.50;;;27.47;45.95
57248;BME280;55809;46.618;10.764;2023-07-20T11:49:09;92468.97;;;27.41;46.87
57248;BME280;55809;46.618;10.764;2023-07-20T11:51:39;92479.31;;;27.40;43.95
57248;BME280;55809;46.618;10.764;2023-07-20T11:54:09;92474.38;;;27.57;49.46
57248;BME280;55809;46.618;10.764;2023-07-20T11:56:41;92469.19;;;27.48;45.40
57248;BME280;55809;46.618;10.764;2023-07-20T11:59:11;92468.00;;;27.38;45.94
57248;BME280;55809;46.618;10.764;2023-07-20T12:01:41;92457.38;;;27.42;43.84
57248;BME280;55809;46.618;10.764;2023-07-20T12:04:09;92459.13;;;27.45;44.47
57248;BME280;55809;46.618;10.764;2023-07-20T12:06:36;92449.34;;;27.39;45.33
57248;BME280;55809;46.618;10.764;2023-07-20T12:09:04;92443.63;;;27.31;45.54
57248;BME280;55809;46.618;10.764;2023-07-20T12:11:35;92417.47;;;26.96;45.88
57248;BME280;55809;46.618;10.764;2023-07-20T12:14:03;92430.94;;;27.11;45.25
57248;BME280;55809;46.618;10.764;2023-07-20T12:16:31;92433.34;;;27.26;43.80
57248;BME280;55809;46.618;10.764;2023-07-20T12:19:03;92437.16;;;27.23;45.06
57248;BME280;55809;46.618;10.764;2023-07-20T12:21:31;92419.34;;;27.12;43.27
57248;BME280;55809;46.618;10.764;2023-07-20T12:23:58;92430.47;;;27.37;43.63
57248;BME280;55809;46.618;10.764;2023-07-20T12:26:29;92426.38;;;27.44;45.43
57248;BME280;55809;46.618;10.764;2023-07-20T12:28:58;92416.38;;;27.35;44.89
57248;BME280;55809;46.618;10.764;2023-07-20T12:31:26;92405.50;;;27.12;44.58
57248;BME280;55809;46.618;10.764;2023-07-20T12:33:54;92410.47;;;26.89;45.17
57248;BME280;55809;46.618;10.764;2023-07-20T12:36:21;92399.34;;;26.95;43.39
57248;BME280;55809;46.618;10.764;2023-07-20T12:38:49;92420.75;;;26.95;43.91
57248;BME280;55809;46.618;10.764;2023-07-20T12:41:16;92400.47;;;26.81;43.66
57248;BME280;55809;46.618;10.764;2023-07-20T12:43:45;92419.72;;;26.98;44.37
57248;BME280;55809;46.618;10.764;2023-07-20T12:46:16;92414.16;;;26.98;44.81
57248;BME280;55809;46.618;10.764;2023-07-20T12:48:45;92403.75;;;27.09;43.39
57248;BME280;55809;46.618;10.764;2023-07-20T12:51:14;92395.19;;;27.13;44.75
57248;BME280;55809;46.618;10.764;2023-07-20T12:53:41;92406.69;;;27.23;45.41
57248;BME280;55809;46.618;10.764;2023-07-20T12:56:10;92390.22;;;27.30;45.43
57248;BME280;55809;46.618;10.764;2023-07-20T12:58:38;92385.66;;;27.33;45.63
57248;BME280;55809;46.618;10.764;2023-07-20T13:01:07;92393.63;;;27.42;43.24
57248;BME280;55809;46.618;10.764;2023-07-20T13:03:37;92385.91;;;27.35;45.54
57248;BME280;55809;46.618;10.764;2023-07-20T13:06:04;92380.53;;;27.43;47.13
57248;BME280;55809;46.618;10.764;2023-07-20T13:08:33;92381.22;;;27.49;44.90
57248;BME280;55809;46.618;10.764;2023-07-20T13:11:00;92373.59;;;27.55;43.24
57248;BME280;55809;46.618;10.764;2023-07-20T13:13:28;92382.72;;;27.50;44.36
57248;BME280;55809;46.618;10.764;2023-07-20T13:15:58;92386.13;;;27.07;46.30
57248;BME280;55809;46.618;10.764;2023-07-20T13:18:25;92379.56;;;26.85;45.71
57248;BME280;55809;46.618;10.764;2023-07-20T13:20:56;92376.78;;;26.85;46.09
57248;BME280;55809;46.618;10.764;2023-07-20T13:23:24;92378.72;;;26.60;43.61
57248;BME280;55809;46.618;10.764;2023-07-20T13:25:53;92387.69;;;26.36;45.24
57248;BME280;55809;46.618;10.764;2023-07-20T13:28:20;92385.34;;;26.52;45.66
57248;BME280;55809;46.618;10.764;2023-07-20T13:30:47;92373.66;;;26.64;45.81
57248;BME280;55809;46.618;10.764;2023-07-20T13:33:15;92382.72;;;26.65;45.67
57248;BME280;55809;46.618;10.764;2023-07-20T13:35:42;92366.44;;;26.56;45.85
57248;BME280;55809;46.618;10.764;2023-07-20T13:38:10;92366.50;;;26.44;45.95
57248;BME280;55809;46.618;10.764;2023-07-20T13:40:41;92368.81;;;26.35;44.48
57248;BME280;55809;46.618;10.764;2023-07-20T13:43:08;92369.09;;;26.31;43.70
57248;BME280;55809;46.618;10.764;2023-07-20T13:45:39;92363.28;;;26.35;43.77
57248;BME280;55809;46.618;10.764;2023-07-20T13:48:06;92358.69;;;26.49;45.53
57248;BME280;55809;46.618;10.764;2023-07-20T13:50:36;92353.19;;;26.43;43.06
57248;BME280;55809;46.618;10.764;2023-07-20T13:53:04;92362.28;;;26.32;43.13
57248;BME280;55809;46.618;10.764;2023-07-20T13:55:35;92340.50;;;26.23;44.35
57248;BME280;55809;46.618;10.764;2023-07-20T13:58:05;92350.31;;;26.18;44.37
57248;BME280;55809;46.618;10.764;2023-07-20T14:00:32;92361.16;;;26.16;46.00
57248;BME280;55809;46.618;10.764;2023-07-20T14:03:02;92349.41;;;26.05;45.31
57248;BME280;55809;46.618;10.764;2023-07-20T14:05:29;92354.81;;;26.22;45.29
57248;BME280;55809;46.618;10.764;2023-07-20T14:08:02;92340.56;;;26.53;43.84
57248;BME280;55809;46.618;10.764;2023-07-20T14:10:29;92339.63;;;26.75;43.95
57248;BME280;55809;46.618;10.764;2023-07-20T14:13:00;92345.97;;;26.95;43.63
57248;BME280;55809;46.618;10.764;2023-07-20T14:15:27;92351.22;;;26.98;44.07
57248;BME280;55809;46.618;10.764;2023-07-20T14:17:54;92344.00;;;26.89;43.54
57248;BME280;55809;46.618;10.764;2023-07-20T14:20:22;92346.78;;;26.89;42.89
57248;BME280;55809;46.618;10.764;2023-07-20T14:22:51;92347.22;;;26.94;43.32
57248;BME280;55809;46.618;10.764;2023-07-20T14:25:19;92337.34;;;26.74;43.87
57248;BME280;55809;46.618;10.764;2023-07-20T14:27:46;92342.19;;;26.67;45.41
57248;BME280;55809;46.618;10.764;2023-07-20T14:30:15;92334.59;;;26.74;47.33
57248;BME280;55809;46.618;10.764;2023-07-20T14:32:42;92341.25;;;26.89;47.00
57248;BME280;55809;46.618;10.764;2023-07-20T14:35:10;92335.06;;;27.02;45.36
57248;BME280;55809;46.618;10.764;2023-07-20T14:37:37;92324.00;;;27.02;45.97
57248;BME280;55809;46.618;10.764;2023-07-20T14:40:07;92325.94;;;27.07;44.73
57248;BME280;55809;46.618;10.764;2023-07-20T14:42:34;92323.47;;;27.04;45.18
57248;BME280;55809;46.618;10.764;2023-07-20T14:45:01;92315.91;;;27.04;44.49
57248;BME280;55809;46.618;10.764;2023-07-20T14:47:31;92317.97;;;26.98;44.14
57248;BME280;55809;46.618;10.764;2023-07-20T14:50:02;92320.00;;;26.98;43.87
57248;BME280;55809;46.618;10.764;2023-07-20T14:52:29;92321.31;;;26.91;43.84
57248;BME280;55809;46.618;10.764;2023-07-20T14:54:56;92310.66;;;26.76;43.75
57248;BME280;55809;46.618;10.764;2023-07-20T14:57:24;92318.13;;;26.81;45.27
57248;BME280;55809;46.618;10.764;2023-07-20T14:59:55;92317.63;;;26.83;45.34
57248;BME280;55809;46.618;10.764;2023-07-20T15:02:23;92318.38;;;26.83;44.93
57248;BME280;55809;46.618;10.764;2023-07-20T15:04:53;92320.91;;;26.81;44.96
57248;BME280;55809;46.618;10.764;2023-07-20T15:07:21;92317.94;;;26.79;45.22
57248;BME280;55809;46.618;10.764;2023-07-20T15:09:50;92318.38;;;26.83;44.36
57248;BME280;55809;46.618;10.764;2023-07-20T15:12:18;92302.63;;;26.73;46.85
57248;BME280;55809;46.618;10.764;2023-07-20T15:15:02;92296.28;;;26.78;45.87
57248;BME280;55809;46.618;10.764;2023-07-20T15:17:30;92307.75;;;26.87;43.34
57248;BME280;55809;46.618;10.764;2023-07-20T15:19:58;92311.28;;;26.88;45.10
57248;BME280;55809;46.618;10.764;2023-07-20T15:22:26;92313.09;;;26.85;45.41
57248;BME280;55809;46.618;10.764;2023-07-20T15:24:54;92307.56;;;26.85;45.81
57248;BME280;55809;46.618;10.764;2023-07-20T15:27:22;92298.47;;;26.85;44.38
57248;BME280;55809;46.618;10.764;2023-07-20T15:29:51;92304.09;;;26.79;47.49
57248;BME280;55809;46.618;10.764;2023-07-20T15:32:19;92291.56;;;26.73;45.78
57248;BME280;55809;46.618;10.764;2023-07-20T15:34:46;92286.31;;;26.69;45.39
57248;BME280;55809;46.618;10.764;2023-07-20T15:37:18;92304.91;;;26.69;47.05